createdAt,value
2023-03-03T00:01:06.476Z,18.93
2023-03-03T00:04:07.975Z,18.05
2023-03-03T00:07:11.352Z,16.13
2023-03-03T00:10:14.408Z,19.17
2023-03-03T00:13:17.992Z,18.17
2023-03-03T00:16:24.105Z,16.30
2023-03-03T00:19:25.768Z,11.80
2023-03-03T00:22:31.118Z,17.08
2023-03-03T00:25:34.037Z,14.90
2023-03-03T00:28:45.860Z,16.08
2023-03-03T00:31:47.127Z,16.08
2023-03-03T00:34:49.743Z,15.00
2023-03-03T00:37:54.957Z,16.38
2023-03-03T00:40:56.366Z,15.73
2023-03-03T00:43:58.160Z,14.23
2023-03-03T00:47:12.546Z,14.77
2023-03-03T00:50:35.335Z,15.23
2023-03-03T00:53:37.384Z,14.52
2023-03-03T00:56:38.635Z,14.93
2023-03-03T00:59:40.082Z,15.40
2023-03-03T01:02:41.460Z,15.98
2023-03-03T01:05:43.105Z,17.15
2023-03-03T01:08:45.046Z,16.55
2023-03-03T01:11:46.708Z,14.90
2023-03-03T01:14:52.163Z,19.92
2023-03-03T01:17:55.134Z,16.80
2023-03-03T01:20:56.446Z,14.50
2023-03-03T01:23:58.617Z,16.85
2023-03-03T01:26:59.891Z,16.77
2023-03-03T01:30:01.602Z,16.98
2023-03-03T01:33:03.437Z,16.33
2023-03-03T01:36:05.772Z,16.50
2023-03-03T01:39:07.914Z,17.77
2023-03-03T01:42:09.374Z,16.30
2023-03-03T01:45:15.107Z,16.98
2023-03-03T01:48:22.800Z,15.27
2023-03-03T01:51:29.503Z,19.25
2023-03-03T01:54:39.686Z,17.48
2023-03-03T01:57:48.170Z,17.37
2023-03-03T02:00:52.935Z,19.02
2023-03-03T02:03:54.394Z,18.02
2023-03-03T02:07:01.190Z,16.10
2023-03-03T02:10:07.231Z,18.25
2023-03-03T02:13:08.555Z,18.77
2023-03-03T02:16:09.949Z,18.42
2023-03-03T02:19:21.738Z,20.77
2023-03-03T02:22:32.807Z,16.88
2023-03-03T02:25:44.722Z,19.45
2023-03-03T02:28:46.781Z,20.23
2023-03-03T02:31:48.340Z,17.55
2023-03-03T02:34:51.301Z,16.60
2023-03-03T02:37:53.309Z,19.13
2023-03-03T02:41:03.082Z,20.13
2023-03-03T02:44:06.653Z,19.23
2023-03-03T02:47:08.320Z,16.98
2023-03-03T02:50:10.725Z,18.13
2023-03-03T02:53:12.150Z,20.85
2023-03-03T02:56:13.512Z,21.30
2023-03-03T02:59:16.530Z,18.50
2023-03-03T03:02:18.527Z,16.70
2023-03-03T03:05:19.978Z,16.67
2023-03-03T03:08:21.336Z,15.45
2023-03-03T03:11:22.606Z,16.70
2023-03-03T03:14:24.682Z,16.10
2023-03-03T03:17:26.228Z,16.83
2023-03-03T03:20:27.619Z,17.30
2023-03-03T03:23:29.037Z,16.45
2023-03-03T03:26:30.369Z,16.95
2023-03-03T03:29:32.437Z,16.90
2023-03-03T03:32:33.709Z,16.13
2023-03-03T03:35:35.923Z,17.30
2023-03-03T03:38:37.859Z,16.05
2023-03-03T03:41:39.364Z,13.77
2023-03-03T03:44:41.454Z,13.97
2023-03-03T03:47:42.730Z,15.05
2023-03-03T03:50:44.162Z,17.52
2023-03-03T03:53:45.456Z,14.57
2023-03-03T03:56:46.914Z,17.85
2023-03-03T03:59:50.514Z,14.97
2023-03-03T04:02:51.933Z,14.85
2023-03-03T04:05:54.564Z,14.98
2023-03-03T04:08:56.103Z,17.20
2023-03-03T04:11:57.413Z,16.48
2023-03-03T04:14:59.491Z,16.20
2023-03-03T04:18:00.892Z,15.93
2023-03-03T04:21:02.340Z,15.70
2023-03-03T04:24:03.769Z,18.33
2023-03-03T04:27:05.331Z,17.80
2023-03-03T04:30:08.839Z,19.63
2023-03-03T04:33:10.342Z,17.15
2023-03-03T04:36:11.800Z,20.65
2023-03-03T04:39:13.250Z,17.90
2023-03-03T04:42:14.956Z,17.60
2023-03-03T04:45:17.455Z,20.00
2023-03-03T04:48:18.938Z,21.60
2023-03-03T04:51:20.238Z,21.80
2023-03-03T04:54:21.540Z,16.67
2023-03-03T04:57:23.009Z,16.85
2023-03-03T05:00:24.975Z,14.97
2023-03-03T05:03:27.322Z,14.13
2023-03-03T05:06:29.697Z,15.07
2023-03-03T05:09:31.017Z,17.02
2023-03-03T05:12:32.408Z,15.85
2023-03-03T05:15:34.625Z,16.27
2023-03-03T05:18:36.249Z,15.25
2023-03-03T05:21:41.773Z,15.90
2023-03-03T05:24:43.219Z,17.52
2023-03-03T05:27:44.761Z,16.98
2023-03-03T05:30:46.761Z,14.17
2023-03-03T05:33:48.200Z,13.07
2023-03-03T05:36:49.547Z,14.95
2023-03-03T05:39:50.843Z,14.13
2023-03-03T05:42:52.353Z,15.10
2023-03-03T05:45:58.230Z,16.37
2023-03-03T05:48:59.618Z,13.57
2023-03-03T05:52:01.488Z,15.95
2023-03-03T05:55:02.790Z,15.77
2023-03-03T05:58:04.226Z,14.98
2023-03-03T06:01:06.222Z,16.90
2023-03-03T06:04:07.766Z,17.83
2023-03-03T06:07:09.042Z,16.08
2023-03-03T06:10:11.020Z,18.15
2023-03-03T06:13:12.561Z,16.05
2023-03-03T06:16:14.594Z,15.60
2023-03-03T06:19:16.276Z,17.42
2023-03-03T06:22:17.604Z,20.70
2023-03-03T06:25:18.964Z,16.73
2023-03-03T06:28:20.339Z,17.45
2023-03-03T06:31:22.447Z,16.37
2023-03-03T06:34:24.028Z,14.73
2023-03-03T06:37:25.325Z,16.92
2023-03-03T06:40:26.678Z,17.07
2023-03-03T06:43:28.146Z,16.33
2023-03-03T06:46:30.420Z,15.20
2023-03-03T06:49:32.241Z,15.35
2023-03-03T06:52:33.622Z,15.88
2023-03-03T06:55:35.063Z,14.37
2023-03-03T06:58:36.499Z,14.90
2023-03-03T07:01:38.781Z,16.23
2023-03-03T07:04:40.112Z,13.57
2023-03-03T07:07:41.922Z,17.75
2023-03-03T07:10:44.136Z,14.97
2023-03-03T07:13:47.885Z,15.40
2023-03-03T07:16:57.855Z,14.88
2023-03-03T07:20:01.226Z,16.88
2023-03-03T07:23:18.419Z,13.73
2023-03-03T07:26:21.996Z,14.67
2023-03-03T07:29:25.962Z,14.52
2023-03-03T07:32:38.382Z,14.70
2023-03-03T07:35:42.645Z,14.23
2023-03-03T07:38:49.937Z,14.75
2023-03-03T07:41:51.618Z,16.03
2023-03-03T07:44:55.163Z,14.70
2023-03-03T07:48:21.049Z,15.35
2023-03-03T07:51:27.074Z,14.43
2023-03-03T07:54:31.761Z,12.38
2023-03-03T07:57:36.458Z,13.50
2023-03-03T08:01:25.930Z,13.90
2023-03-03T08:04:36.241Z,13.43
2023-03-03T08:07:37.950Z,13.73
2023-03-03T08:10:44.071Z,12.18
2023-03-03T08:13:45.825Z,12.03
2023-03-03T08:16:47.682Z,12.10
2023-03-03T08:19:51.038Z,12.70
2023-03-03T08:22:52.455Z,14.00
2023-03-03T08:25:54.181Z,12.85
2023-03-03T08:28:55.477Z,12.87
2023-03-03T08:31:56.874Z,11.43
2023-03-03T08:34:58.849Z,10.48
2023-03-03T08:38:00.746Z,12.50
2023-03-03T08:41:02.259Z,11.70
2023-03-03T08:44:04.074Z,13.13
2023-03-03T08:47:05.984Z,13.57
2023-03-03T08:50:08.693Z,12.57
2023-03-03T08:53:11.608Z,13.02
2023-03-03T08:56:12.929Z,14.27
2023-03-03T08:59:14.370Z,15.90
2023-03-03T09:02:16.415Z,13.38
2023-03-03T09:05:19.899Z,10.93
2023-03-03T09:08:21.443Z,11.82
2023-03-03T09:11:25.441Z,10.77
2023-03-03T09:14:28.852Z,12.03
2023-03-03T09:17:32.848Z,13.77
2023-03-03T09:20:37.075Z,12.57
2023-03-03T09:23:41.773Z,14.38
2023-03-03T09:26:45.806Z,13.40
2023-03-03T09:29:47.216Z,13.13
2023-03-03T09:32:48.498Z,14.13
2023-03-03T09:35:52.848Z,13.65
2023-03-03T09:38:55.883Z,13.93
2023-03-03T09:42:38.003Z,14.73
2023-03-03T09:45:58.972Z,14.32
2023-03-03T09:49:17.822Z,15.25
2023-03-03T09:52:31.153Z,15.13
2023-03-03T09:55:42.955Z,14.48
2023-03-03T09:58:55.388Z,13.27
2023-03-03T10:02:18.058Z,12.82
2023-03-03T10:05:28.180Z,13.77
2023-03-03T10:08:45.530Z,12.90
2023-03-03T10:11:53.349Z,15.02
2023-03-03T10:15:11.422Z,14.87
2023-03-03T10:18:24.842Z,16.15
2023-03-03T10:21:31.557Z,15.50
2023-03-03T10:24:42.180Z,16.75
2023-03-03T10:27:56.040Z,16.88
2023-03-03T10:31:12.197Z,16.57
2023-03-03T10:34:29.303Z,18.10
2023-03-03T10:37:42.009Z,18.88
2023-03-03T10:40:50.532Z,19.17
2023-03-03T10:44:11.612Z,20.95
2023-03-03T10:47:33.516Z,18.87
2023-03-03T10:50:49.347Z,18.25
2023-03-03T10:54:05.235Z,19.88
2023-03-03T10:57:16.515Z,18.58
2023-03-03T11:00:24.315Z,15.70
2023-03-03T11:04:13.395Z,18.60
2023-03-03T11:07:21.710Z,20.73
2023-03-03T11:10:50.777Z,21.23
2023-03-03T11:14:00.997Z,20.90
2023-03-03T11:17:10.878Z,17.50
2023-03-03T11:20:26.854Z,18.67
2023-03-03T11:23:54.718Z,20.08
2023-03-03T11:27:14.902Z,18.30
2023-03-03T11:30:29.580Z,21.67
2023-03-03T11:33:37.301Z,19.88
2023-03-03T11:36:45.049Z,22.15
2023-03-03T11:39:48.343Z,20.63
2023-03-03T11:43:03.326Z,23.33
2023-03-03T11:46:09.394Z,19.47
2023-03-03T11:49:17.829Z,18.52
2023-03-03T11:52:29.066Z,23.25
2023-03-03T11:55:33.509Z,21.80
2023-03-03T11:58:44.881Z,18.33
2023-03-03T12:01:52.799Z,20.87
2023-03-03T12:04:59.284Z,19.67
2023-03-03T12:08:06.702Z,20.63
2023-03-03T12:11:16.770Z,19.15
2023-03-03T12:14:35.828Z,20.07
2023-03-03T12:17:51.262Z,22.60
2023-03-03T12:21:07.635Z,19.42
2023-03-03T12:24:31.106Z,20.58
2023-03-03T12:27:41.235Z,22.20
2023-03-03T12:31:07.257Z,18.70
2023-03-03T12:34:17.772Z,19.47
2023-03-03T12:37:27.942Z,19.85
2023-03-03T12:40:33.766Z,18.35
2023-03-03T12:43:54.814Z,22.10
2023-03-03T12:47:01.136Z,18.40
2023-03-03T12:50:27.081Z,21.73
2023-03-03T12:53:39.947Z,22.17
2023-03-03T12:56:48.571Z,23.65
2023-03-03T13:00:12.377Z,19.67
2023-03-03T13:03:31.570Z,19.77
2023-03-03T13:06:40.785Z,20.50
2023-03-03T13:09:59.739Z,19.77
2023-03-03T13:13:06.386Z,19.80
2023-03-03T13:16:14.980Z,18.52
2023-03-03T13:19:25.599Z,19.80
2023-03-03T13:22:41.474Z,20.60
2023-03-03T13:25:51.412Z,18.15
2023-03-03T13:29:09.011Z,18.55
2023-03-03T13:32:16.314Z,21.40
2023-03-03T13:35:28.217Z,21.87
2023-03-03T13:38:32.076Z,19.83
2023-03-03T13:41:43.412Z,19.23
2023-03-03T13:44:48.812Z,20.60
2023-03-03T13:47:58.269Z,20.88
2023-03-03T13:51:07.568Z,19.27
2023-03-03T13:54:17.395Z,20.57
2023-03-03T13:57:28.311Z,20.50
2023-03-03T14:00:54.266Z,20.83
2023-03-03T14:04:02.232Z,22.50
2023-03-03T14:07:13.728Z,18.93
2023-03-03T14:10:21.159Z,21.07
2023-03-03T14:13:29.669Z,20.15
2023-03-03T14:16:42.683Z,20.80
2023-03-03T14:19:47.935Z,19.65
2023-03-03T14:22:52.983Z,20.77
2023-03-03T14:25:58.336Z,20.60
2023-03-03T14:29:19.902Z,21.67
2023-03-03T14:32:28.427Z,19.27
2023-03-03T14:35:35.870Z,21.10
2023-03-03T14:38:41.004Z,21.50
2023-03-03T14:41:42.945Z,19.70
2023-03-03T14:44:54.728Z,24.87
2023-03-03T14:47:56.335Z,24.80
2023-03-03T14:51:03.824Z,21.83
2023-03-03T14:54:14.067Z,20.33
2023-03-03T14:57:18.368Z,22.17
2023-03-03T15:00:34.113Z,21.23
2023-03-03T15:03:37.886Z,20.17
2023-03-03T15:06:42.644Z,21.58
2023-03-03T15:09:49.624Z,20.55
2023-03-03T15:12:52.717Z,20.33
2023-03-03T15:16:02.981Z,22.50
2023-03-03T15:19:37.031Z,21.73
2023-03-03T15:22:47.268Z,20.75
2023-03-03T15:25:58.973Z,18.65
2023-03-03T15:29:08.020Z,22.00
2023-03-03T15:32:16.962Z,20.27
2023-03-03T15:35:26.888Z,19.25
2023-03-03T15:38:38.651Z,22.23
2023-03-03T15:41:44.335Z,16.83
2023-03-03T15:44:56.183Z,20.83
2023-03-03T15:48:29.486Z,22.23
2023-03-03T15:52:01.005Z,23.73
2023-03-03T15:55:24.048Z,19.05
2023-03-03T15:58:48.426Z,18.98
2023-03-03T16:01:57.707Z,19.63
2023-03-03T16:05:08.369Z,19.60
2023-03-03T16:08:14.266Z,19.50
2023-03-03T16:11:23.545Z,18.30
2023-03-03T16:14:57.845Z,20.00
2023-03-03T16:18:06.777Z,20.43
2023-03-03T16:21:21.662Z,19.13
2023-03-03T16:24:34.268Z,19.33
2023-03-03T16:27:43.173Z,17.00
2023-03-03T16:30:51.232Z,18.98
2023-03-03T16:34:00.786Z,16.40
2023-03-03T16:37:12.024Z,19.50
2023-03-03T16:40:20.254Z,16.90
2023-03-03T16:43:31.623Z,16.88
2023-03-03T16:46:39.054Z,18.25
2023-03-03T16:49:54.100Z,19.00
2023-03-03T16:53:01.120Z,18.00
2023-03-03T16:56:09.330Z,19.58
2023-03-03T16:59:52.626Z,16.77
2023-03-03T17:03:09.074Z,19.10
2023-03-03T17:06:18.540Z,18.02
2023-03-03T17:09:47.788Z,17.80
2023-03-03T17:13:25.164Z,19.25
2023-03-03T17:16:51.048Z,21.02
2023-03-03T17:20:09.280Z,19.67
2023-03-03T17:23:30.726Z,17.77
2023-03-03T17:26:50.391Z,21.73
2023-03-03T17:30:02.403Z,19.33
2023-03-03T17:33:16.477Z,20.20
2023-03-03T17:36:31.830Z,23.67
2023-03-03T17:40:03.297Z,20.25
2023-03-03T17:43:11.185Z,22.90
2023-03-03T17:46:17.689Z,19.15
2023-03-03T17:49:54.738Z,18.80
2023-03-03T17:53:13.266Z,20.23
2023-03-03T17:56:21.066Z,21.85
2023-03-03T17:59:35.200Z,20.80
2023-03-03T18:03:12.721Z,20.00
2023-03-03T18:06:55.598Z,19.67
2023-03-03T18:10:20.652Z,20.23
2023-03-03T18:13:49.509Z,18.40
2023-03-03T18:17:41.239Z,18.60
2023-03-03T18:20:59.089Z,18.95
2023-03-03T18:24:29.925Z,20.00
2023-03-03T18:27:35.682Z,22.35
2023-03-03T18:30:56.967Z,19.48
2023-03-03T18:34:02.858Z,17.67
2023-03-03T18:37:09.869Z,21.42
2023-03-03T18:40:32.521Z,25.67
2023-03-03T18:43:48.836Z,21.83
2023-03-03T18:46:53.386Z,24.13
2023-03-03T18:50:05.034Z,20.10
2023-03-03T18:53:19.278Z,21.30
2023-03-03T18:56:42.785Z,26.63
2023-03-03T18:59:56.478Z,24.70
2023-03-03T19:02:59.584Z,22.80
2023-03-03T19:06:01.913Z,23.60
2023-03-03T19:09:05.006Z,20.92
2023-03-03T19:12:08.630Z,23.77
2023-03-03T19:15:58.035Z,24.63
2023-03-03T19:19:10.803Z,23.17
2023-03-03T19:22:24.578Z,25.37
2023-03-03T19:25:27.456Z,22.10
2023-03-03T19:28:38.486Z,23.45
2023-03-03T19:31:46.772Z,22.85
2023-03-03T19:34:57.752Z,22.30
2023-03-03T19:38:11.692Z,22.67
2023-03-03T19:41:22.124Z,25.35
2023-03-03T19:44:42.379Z,22.55
2023-03-03T19:47:47.890Z,26.63
2023-03-03T19:50:58.826Z,23.52
2023-03-03T19:54:12.490Z,23.50
2023-03-03T19:57:22.725Z,25.98
2023-03-03T20:00:32.253Z,24.17
2023-03-03T20:04:06.276Z,20.30
2023-03-03T20:07:22.131Z,22.75
2023-03-03T20:10:35.387Z,21.17
2023-03-03T20:13:50.263Z,22.13
2023-03-03T20:16:56.690Z,19.00
2023-03-03T20:20:06.796Z,18.80
2023-03-03T20:23:19.573Z,18.95
2023-03-03T20:26:26.502Z,13.40
2023-03-03T20:29:43.890Z,14.15
2023-03-03T20:33:07.295Z,13.52
2023-03-03T20:36:16.030Z,12.93
2023-03-03T20:39:29.789Z,14.65
2023-03-03T20:42:46.752Z,13.17
2023-03-03T20:45:58.926Z,16.00
2023-03-03T20:49:15.695Z,13.85
2023-03-03T20:52:22.661Z,14.77
2023-03-03T20:55:32.310Z,16.20
2023-03-03T20:58:43.247Z,14.90
2023-03-03T21:01:53.107Z,13.77
2023-03-03T21:05:09.241Z,14.18
2023-03-03T21:08:10.589Z,16.58
2023-03-03T21:11:13.788Z,17.05
2023-03-03T21:14:19.023Z,15.53
2023-03-03T21:17:27.859Z,16.90
2023-03-03T21:20:31.241Z,18.52
2023-03-03T21:23:32.730Z,15.32
2023-03-03T21:26:49.644Z,17.27
2023-03-03T21:30:02.044Z,19.20
2023-03-03T21:33:03.512Z,19.80
2023-03-03T21:36:06.342Z,20.92
2023-03-03T21:39:20.352Z,17.50
2023-03-03T21:42:40.175Z,19.08
2023-03-03T21:45:43.855Z,19.80
2023-03-03T21:48:45.340Z,18.97
2023-03-03T21:51:46.797Z,16.73
2023-03-03T21:54:50.068Z,16.73
2023-03-03T21:57:52.032Z,17.00
2023-03-03T22:00:53.463Z,17.57
2023-03-03T22:03:54.837Z,20.37
2023-03-03T22:06:56.538Z,18.80
2023-03-03T22:09:58.342Z,18.42
2023-03-03T22:13:00.551Z,19.77
2023-03-03T22:16:02.122Z,15.70
2023-03-03T22:19:04.061Z,17.87
2023-03-03T22:22:05.517Z,18.80
2023-03-03T22:25:08.084Z,18.77
2023-03-03T22:28:10.174Z,19.02
2023-03-03T22:31:11.709Z,20.27
2023-03-03T22:34:13.060Z,18.27
2023-03-03T22:37:14.602Z,16.65
2023-03-03T22:40:16.380Z,18.30
2023-03-03T22:43:18.507Z,17.88
2023-03-03T22:46:19.844Z,18.90
2023-03-03T22:49:21.392Z,18.90
2023-03-03T22:52:22.907Z,19.80
2023-03-03T22:55:24.224Z,16.42
2023-03-03T22:58:26.461Z,20.43
2023-03-03T23:01:27.768Z,20.08
2023-03-03T23:04:32.212Z,22.00
2023-03-03T23:07:34.686Z,20.77
2023-03-03T23:10:36.201Z,22.63
2023-03-03T23:13:38.657Z,23.37
2023-03-03T23:16:40.413Z,23.00
2023-03-03T23:19:42.976Z,24.65
2023-03-03T23:22:44.653Z,26.00
2023-03-03T23:25:46.116Z,27.87
2023-03-03T23:28:48.027Z,24.87
2023-03-03T23:31:49.640Z,31.52
2023-03-03T23:34:51.397Z,30.90
2023-03-03T23:37:52.841Z,29.35
2023-03-03T23:40:54.320Z,29.47
2023-03-03T23:43:56.270Z,29.43
2023-03-03T23:46:57.729Z,29.15
2023-03-03T23:49:59.073Z,28.92
2023-03-03T23:53:00.494Z,32.83
2023-03-03T23:56:01.791Z,32.40
2023-03-03T23:59:03.902Z,33.40
